sensor_id;sensor_type;location;lat;lon;timestamp;pressure;altitude;pressure_sealevel;temperature;humidity
77165;BME280;66140;50.280;18.660;2023-03-11T05:00:17;96543.41;;;3.41;97.90
77165;BME280;66140;50.280;18.660;2023-03-11T05:02:47;96553.63;;;3.33;97.61
77165;BME280;66140;50.280;18.660;2023-03-11T05:05:12;96553.97;;;3.29;98.09
77165;BME280;66140;50.280;18.660;2023-03-11T05:07:37;96585.22;;;3.32;98.92
77165;BME280;66140;50.280;18.660;2023-03-11T05:10:04;96577.44;;;3.19;98.22
77165;BME280;66140;50.280;18.660;2023-03-11T05:12:29;96585.53;;;2.92;97.32
77165;BME280;66140;50.280;18.660;2023-03-11T05:14:55;96594.19;;;2.81;96.67
77165;BME280;66140;50.280;18.660;2023-03-11T05:17:20;96609.56;;;2.62;96.26
77165;BME280;66140;50.280;18.660;2023-03-11T05:19:46;96594.94;;;2.47;96.87
77165;BME280;66140;50.280;18.660;2023-03-11T05:22:12;96607.94;;;2.49;97.43
77165;BME280;66140;50.280;18.660;2023-03-11T05:24:38;96614.00;;;2.49;97.34
77165;BME280;66140;50.280;18.660;2023-03-11T05:27:04;96609.41;;;2.40;96.80
77165;BME280;66140;50.280;18.660;2023-03-11T05:29:29;96610.88;;;2.31;96.00
77165;BME280;66140;50.280;18.660;2023-03-11T05:31:55;96614.16;;;2.22;96.37
77165;BME280;66140;50.280;18.660;2023-03-11T05:34:21;96609.03;;;2.21;95.69
77165;BME280;66140;50.280;18.660;2023-03-11T05:36:47;96628.41;;;2.06;95.58
77165;BME280;66140;50.280;18.660;2023-03-11T05:39:13;96630.19;;;2.05;95.92
77165;BME280;66140;50.280;18.660;2023-03-11T05:41:38;96632.69;;;2.07;95.92
77165;BME280;66140;50.280;18.660;2023-03-11T05:44:04;96638.75;;;2.07;96.75
77165;BME280;66140;50.280;18.660;2023-03-11T05:46:32;96637.31;;;1.90;97.16
77165;BME280;66140;50.280;18.660;2023-03-11T05:48:58;96656.97;;;1.96;97.31
77165;BME280;66140;50.280;18.660;2023-03-11T05:51:27;96653.63;;;1.81;96.97
77165;BME280;66140;50.280;18.660;2023-03-11T05:53:52;96664.72;;;1.72;96.95
77165;BME280;66140;50.280;18.660;2023-03-11T05:56:20;96667.84;;;1.52;96.81
77165;BME280;66140;50.280;18.660;2023-03-11T05:58:46;96691.09;;;1.42;96.95
77165;BME280;66140;50.280;18.660;2023-03-11T06:01:14;96669.66;;;1.25;97.62
77165;BME280;66140;50.280;18.660;2023-03-11T06:03:40;96690.63;;;1.23;97.96
77165;BME280;66140;50.280;18.660;2023-03-11T06:06:08;96697.41;;;1.13;98.22
77165;BME280;66140;50.280;18.660;2023-03-11T06:08:34;96687.09;;;0.97;98.46
77165;BME280;66140;50.280;18.660;2023-03-11T06:11:05;96688.78;;;0.98;99.34
77165;BME280;66140;50.280;18.660;2023-03-11T06:13:31;96702.19;;;1.06;99.02
77165;BME280;66140;50.280;18.660;2023-03-11T06:15:57;96697.31;;;1.14;99.36
77165;BME280;66140;50.280;18.660;2023-03-11T06:18:22;96710.38;;;1.14;99.45
77165;BME280;66140;50.280;18.660;2023-03-11T06:20:48;96720.59;;;1.17;99.71
77165;BME280;66140;50.280;18.660;2023-03-11T06:23:13;96720.09;;;1.25;99.63
77165;BME280;66140;50.280;18.660;2023-03-11T06:25:39;96729.94;;;1.22;99.00
77165;BME280;66140;50.280;18.660;2023-03-11T06:28:04;96729.63;;;1.26;99.48
77165;BME280;66140;50.280;18.660;2023-03-11T06:30:29;96738.31;;;1.27;98.99
77165;BME280;66140;50.280;18.660;2023-03-11T06:32:55;96729.63;;;1.26;99.31
77165;BME280;66140;50.280;18.660;2023-03-11T06:35:20;96728.66;;;1.14;99.33
77165;BME280;66140;50.280;18.660;2023-03-11T06:37:46;96735.88;;;1.24;99.64
77165;BME280;66140;50.280;18.660;2023-03-11T06:40:12;96731.78;;;1.19;99.80
77165;BME280;66140;50.280;18.660;2023-03-11T06:42:38;96740.56;;;1.18;99.30
77165;BME280;66140;50.280;18.660;2023-03-11T06:45:04;96741.09;;;1.24;99.49
77165;BME280;66140;50.280;18.660;2023-03-11T06:47:29;96738.31;;;1.27;99.78
77165;BME280;66140;50.280;18.660;2023-03-11T06:49:55;96754.69;;;1.29;100.00
77165;BME280;66140;50.280;18.660;2023-03-11T06:52:20;96749.84;;;1.23;100.00
77165;BME280;66140;50.280;18.660;2023-03-11T06:54:45;96750.91;;;1.20;99.99
77165;BME280;66140;50.280;18.660;2023-03-11T06:57:11;96753.03;;;1.28;99.75
77165;BME280;66140;50.280;18.660;2023-03-11T06:59:37;96758.66;;;1.22;99.78
77165;BME280;66140;50.280;18.660;2023-03-11T07:02:04;96762.34;;;1.32;99.82
77165;BME280;66140;50.280;18.660;2023-03-11T07:04:30;96768.31;;;1.34;99.69
77165;BME280;66140;50.280;18.660;2023-03-11T07:06:56;96777.94;;;1.33;99.65
77165;BME280;66140;50.280;18.660;2023-03-11T07:09:22;96768.91;;;1.25;98.85
77165;BME280;66140;50.280;18.660;2023-03-11T07:11:50;96777.28;;;1.30;99.52
77165;BME280;66140;50.280;18.660;2023-03-11T07:14:15;96776.56;;;1.28;99.52
77165;BME280;66140;50.280;18.660;2023-03-11T07:16:41;96791.47;;;1.26;98.46
77165;BME280;66140;50.280;18.660;2023-03-11T07:19:06;96786.25;;;1.26;98.92
77165;BME280;66140;50.280;18.660;2023-03-11T07:21:33;96785.84;;;1.32;98.63
77165;BME280;66140;50.280;18.660;2023-03-11T07:24:00;96796.09;;;1.35;98.42
77165;BME280;66140;50.280;18.660;2023-03-11T07:26:27;96798.44;;;1.39;98.14
77165;BME280;66140;50.280;18.660;2023-03-11T07:28:54;96792.28;;;1.40;97.89
77165;BME280;66140;50.280;18.660;2023-03-11T07:31:22;96804.09;;;1.46;97.41
77165;BME280;66140;50.280;18.660;2023-03-11T07:33:48;96810.78;;;1.50;97.53
77165;BME280;66140;50.280;18.660;2023-03-11T07:36:16;96822.72;;;1.54;97.62
77165;BME280;66140;50.280;18.660;2023-03-11T07:38:43;96815.53;;;1.57;97.87
77165;BME280;66140;50.280;18.660;2023-03-11T07:41:10;96824.56;;;1.66;97.75
77165;BME280;66140;50.280;18.660;2023-03-11T07:43:36;96830.91;;;1.62;96.86
77165;BME280;66140;50.280;18.660;2023-03-11T07:48:31;96836.50;;;1.70;97.96
77165;BME280;66140;50.280;18.660;2023-03-11T07:51:05;96821.50;;;1.59;97.44
77165;BME280;66140;50.280;18.660;2023-03-11T07:53:31;96841.22;;;1.51;96.79
77165;BME280;66140;50.280;18.660;2023-03-11T07:55:57;96845.91;;;1.46;97.72
77165;BME280;66140;50.280;18.660;2023-03-11T07:58:23;96832.84;;;1.46;97.80
77165;BME280;66140;50.280;18.660;2023-03-11T08:00:49;96854.19;;;1.52;97.95
77165;BME280;66140;50.280;18.660;2023-03-11T08:03:15;96851.13;;;1.46;97.14
77165;BME280;66140;50.280;18.660;2023-03-11T08:05:40;96853.28;;;1.39;96.86
77165;BME280;66140;50.280;18.660;2023-03-11T08:08:06;96859.00;;;1.32;96.83
77165;BME280;66140;50.280;18.660;2023-03-11T08:10:31;96873.16;;;1.42;97.26
77165;BME280;66140;50.280;18.660;2023-03-11T08:12:56;96869.22;;;1.35;97.17
77165;BME280;66140;50.280;18.660;2023-03-11T08:15:22;96869.38;;;1.19;97.15
77165;BME280;66140;50.280;18.660;2023-03-11T08:17:47;96870.13;;;1.21;97.53
77165;BME280;66140;50.280;18.660;2023-03-11T08:20:13;96887.34;;;1.24;97.47
77165;BME280;66140;50.280;18.660;2023-03-11T08:22:39;96880.00;;;1.16;96.99
77165;BME280;66140;50.280;18.660;2023-03-11T08:25:04;96887.47;;;1.08;96.78
77165;BME280;66140;50.280;18.660;2023-03-11T08:27:30;96899.88;;;1.04;96.66
77165;BME280;66140;50.280;18.660;2023-03-11T08:29:57;96893.91;;;1.02;98.03
77165;BME280;66140;50.280;18.660;2023-03-11T08:32:22;96906.03;;;1.03;97.95
77165;BME280;66140;50.280;18.660;2023-03-11T08:34:48;96905.28;;;0.87;96.95
77165;BME280;66140;50.280;18.660;2023-03-11T08:37:13;96905.81;;;0.78;96.87
77165;BME280;66140;50.280;18.660;2023-03-11T08:39:38;96900.88;;;0.73;96.73
77165;BME280;66140;50.280;18.660;2023-03-11T08:42:04;96918.88;;;0.78;97.49
77165;BME280;66140;50.280;18.660;2023-03-11T08:44:30;96915.63;;;0.74;97.73
77165;BME280;66140;50.280;18.660;2023-03-11T08:46:55;96927.81;;;0.74;97.89
77165;BME280;66140;50.280;18.660;2023-03-11T08:49:20;96919.97;;;0.60;97.72
77165;BME280;66140;50.280;18.660;2023-03-11T08:51:46;96927.03;;;0.58;98.08
77165;BME280;66140;50.280;18.660;2023-03-11T08:54:11;96942.34;;;0.64;98.41
77165;BME280;66140;50.280;18.660;2023-03-11T08:56:37;96931.81;;;0.65;98.86
77165;BME280;66140;50.280;18.660;2023-03-11T08:59:02;96929.00;;;0.54;98.43
77165;BME280;66140;50.280;18.660;2023-03-11T09:01:28;96944.97;;;0.64;98.78
77165;BME280;66140;50.280;18.660;2023-03-11T09:03:54;96941.59;;;0.62;98.05
77165;BME280;66140;50.280;18.660;2023-03-11T09:06:22;96953.25;;;0.56;98.86
77165;BME280;66140;50.280;18.660;2023-03-11T09:08:48;96955.56;;;0.61;98.72
77165;BME280;66140;50.280;18.660;2023-03-11T09:11:17;96963.22;;;0.64;99.25
77165;BME280;66140;50.280;18.660;2023-03-11T09:13:43;96966.94;;;0.60;98.85
77165;BME280;66140;50.280;18.660;2023-03-11T09:16:14;96976.44;;;0.61;98.63
77165;BME280;66140;50.280;18.660;2023-03-11T09:18:42;96979.81;;;0.63;99.18
77165;BME280;66140;50.280;18.660;2023-03-11T09:21:09;96985.75;;;0.65;98.92
77165;BME280;66140;50.280;18.660;2023-03-11T09:23:41;96975.69;;;0.59;98.86
77165;BME280;66140;50.280;18.660;2023-03-11T09:26:07;96991.53;;;0.56;99.18
77165;BME280;66140;50.280;18.660;2023-03-11T09:28:32;96988.56;;;0.62;99.06
77165;BME280;66140;50.280;18.660;2023-03-11T09:30:57;97003.53;;;0.58;99.46
77165;BME280;66140;50.280;18.660;2023-03-11T09:33:23;97007.34;;;0.53;99.17
77165;BME280;66140;50.280;18.660;2023-03-11T09:35:49;96997.03;;;0.51;99.68
77165;BME280;66140;50.280;18.660;2023-03-11T09:38:14;97011.00;;;0.50;99.50
77165;BME280;66140;50.280;18.660;2023-03-11T09:43:50;97026.28;;;0.56;99.45
77165;BME280;66140;50.280;18.660;2023-03-11T09:46:50;97032.44;;;0.55;99.69
77165;BME280;66140;50.280;18.660;2023-03-11T09:52:18;97028.22;;;0.53;99.21
77165;BME280;66140;50.280;18.660;2023-03-11T09:54:51;97030.34;;;0.46;99.38
77165;BME280;66140;50.280;18.660;2023-03-11T09:57:25;97052.28;;;0.58;99.82
77165;BME280;66140;50.280;18.660;2023-03-11T09:59:53;97050.00;;;0.52;99.66
77165;BME280;66140;50.280;18.660;2023-03-11T10:02:21;97058.59;;;0.54;99.81
77165;BME280;66140;50.280;18.660;2023-03-11T10:05:19;97059.94;;;0.61;100.00
77165;BME280;66140;50.280;18.660;2023-03-11T10:07:52;97062.31;;;0.50;99.95
77165;BME280;66140;50.280;18.660;2023-03-11T10:10:20;97073.91;;;0.60;99.70
77165;BME280;66140;50.280;18.660;2023-03-11T10:13:03;97068.13;;;0.55;99.77
77165;BME280;66140;50.280;18.660;2023-03-11T10:16:03;97075.94;;;0.55;99.32
77165;BME280;66140;50.280;18.660;2023-03-11T10:26:44;97091.25;;;0.61;98.71
77165;BME280;66140;50.280;18.660;2023-03-11T10:29:26;97099.00;;;0.62;99.22
77165;BME280;66140;50.280;18.660;2023-03-11T10:32:13;97116.00;;;0.54;98.58
77165;BME280;66140;50.280;18.660;2023-03-11T10:34:43;97121.41;;;0.51;99.01
77165;BME280;66140;50.280;18.660;2023-03-11T10:37:34;97123.50;;;0.60;99.90
77165;BME280;66140;50.280;18.660;2023-03-11T10:40:36;97149.59;;;0.60;99.26
77165;BME280;66140;50.280;18.660;2023-03-11T10:43:10;97151.69;;;0.53;98.43
77165;BME280;66140;50.280;18.660;2023-03-11T10:45:40;97154.47;;;0.50;98.26
77165;BME280;66140;50.280;18.660;2023-03-11T10:48:13;97164.66;;;0.55;98.52
77165;BME280;66140;50.280;18.660;2023-03-11T10:53:18;97160.03;;;0.60;98.29
77165;BME280;66140;50.280;18.660;2023-03-11T10:55:52;97180.13;;;0.58;97.90
77165;BME280;66140;50.280;18.660;2023-03-11T10:58:21;97201.19;;;0.55;97.80
77165;BME280;66140;50.280;18.660;2023-03-11T11:01:14;97211.09;;;0.48;97.31
77165;BME280;66140;50.280;18.660;2023-03-11T11:03:42;97223.91;;;0.53;98.88
77165;BME280;66140;50.280;18.660;2023-03-11T11:08:44;97233.63;;;0.33;98.45
77165;BME280;66140;50.280;18.660;2023-03-11T11:11:23;97232.88;;;0.31;98.64
77165;BME280;66140;50.280;18.660;2023-03-11T11:13:57;97238.25;;;0.28;98.79
77165;BME280;66140;50.280;18.660;2023-03-11T11:16:26;97253.91;;;0.28;98.49
77165;BME280;66140;50.280;18.660;2023-03-11T11:18:54;97261.38;;;0.19;99.07
77165;BME280;66140;50.280;18.660;2023-03-11T11:24:16;97270.25;;;0.15;99.02
77165;BME280;66140;50.280;18.660;2023-03-11T11:29:36;97269.72;;;0.08;99.43
77165;BME280;66140;50.280;18.660;2023-03-11T11:32:28;97277.16;;;0.16;99.71
77165;BME280;66140;50.280;18.660;2023-03-11T11:35:00;97292.41;;;0.23;98.93
77165;BME280;66140;50.280;18.660;2023-03-11T11:37:28;97291.50;;;0.24;97.32
77165;BME280;66140;50.280;18.660;2023-03-11T11:40:13;97300.25;;;0.23;97.11
77165;BME280;66140;50.280;18.660;2023-03-11T11:45:38;97324.63;;;0.22;96.91
77165;BME280;66140;50.280;18.660;2023-03-11T11:50:40;97344.50;;;0.25;98.34
77165;BME280;66140;50.280;18.660;2023-03-11T11:55:51;97358.16;;;0.30;97.40
77165;BME280;66140;50.280;18.660;2023-03-11T11:58:18;97370.72;;;0.22;97.05
77165;BME280;66140;50.280;18.660;2023-03-11T12:00:48;97367.22;;;0.06;96.93
77165;BME280;66140;50.280;18.660;2023-03-11T12:06:00;97385.34;;;-0.10;99.37
77165;BME280;66140;50.280;18.660;2023-03-11T12:11:16;97397.19;;;-0.03;99.77
77165;BME280;66140;50.280;18.660;2023-03-11T12:16:56;97403.47;;;0.10;99.51
77165;BME280;66140;50.280;18.660;2023-03-11T12:25:27;97424.16;;;0.13;97.76
77165;BME280;66140;50.280;18.660;2023-03-11T12:30:40;97430.16;;;0.15;96.75
77165;BME280;66140;50.280;18.660;2023-03-11T12:36:38;97450.25;;;0.13;96.19
77165;BME280;66140;50.280;18.660;2023-03-11T12:39:06;97466.19;;;0.07;95.57
77165;BME280;66140;50.280;18.660;2023-03-11T12:41:37;97461.75;;;0.09;96.86
77165;BME280;66140;50.280;18.660;2023-03-11T12:44:22;97457.16;;;0.14;96.70
77165;BME280;66140;50.280;18.660;2023-03-11T12:54:37;97479.09;;;0.10;96.06
77165;BME280;66140;50.280;18.660;2023-03-11T13:08:04;97521.94;;;0.05;95.42
77165;BME280;66140;50.280;18.660;2023-03-11T13:10:45;97524.56;;;0.05;95.85
77165;BME280;66140;50.280;18.660;2023-03-11T13:15:50;97546.25;;;0.05;94.34
77165;BME280;66140;50.280;18.660;2023-03-11T13:18:29;97548.72;;;0.08;94.98
77165;BME280;66140;50.280;18.660;2023-03-11T13:20:58;97550.19;;;0.14;94.70
77165;BME280;66140;50.280;18.660;2023-03-11T13:23:27;97559.06;;;0.10;93.88
77165;BME280;66140;50.280;18.660;2023-03-11T13:42:26;97626.19;;;0.06;92.20
77165;BME280;66140;50.280;18.660;2023-03-11T13:44:55;97626.19;;;0.06;92.79
77165;BME280;66140;50.280;18.660;2023-03-11T13:47:22;97620.13;;;0.06;93.34
77165;BME280;66140;50.280;18.660;2023-03-11T13:52:34;97638.56;;;0.01;93.38
77165;BME280;66140;50.280;18.660;2023-03-11T13:55:06;97644.50;;;0.05;94.49
77165;BME280;66140;50.280;18.660;2023-03-11T13:57:35;97652.94;;;0.10;93.37
77165;BME280;66140;50.280;18.660;2023-03-11T14:00:13;97646.53;;;0.17;93.11
77165;BME280;66140;50.280;18.660;2023-03-11T14:02:56;97653.09;;;0.25;93.72
77165;BME280;66140;50.280;18.660;2023-03-11T14:05:23;97660.66;;;0.31;92.85
77165;BME280;66140;50.280;18.660;2023-03-11T14:07:49;97670.94;;;0.34;90.45
77165;BME280;66140;50.280;18.660;2023-03-11T14:12:45;97677.56;;;0.42;89.12
77165;BME280;66140;50.280;18.660;2023-03-11T14:15:18;97689.53;;;0.46;86.63
77165;BME280;66140;50.280;18.660;2023-03-11T14:17:44;97688.84;;;0.42;88.49
77165;BME280;66140;50.280;18.660;2023-03-11T14:20:19;97701.38;;;0.53;88.10
77165;BME280;66140;50.280;18.660;2023-03-11T14:22:51;97698.94;;;0.50;89.54
77165;BME280;66140;50.280;18.660;2023-03-11T14:25:25;97726.56;;;0.54;90.24
77165;BME280;66140;50.280;18.660;2023-03-11T14:27:54;97716.28;;;0.51;90.03
77165;BME280;66140;50.280;18.660;2023-03-11T14:30:23;97727.56;;;0.51;89.16
77165;BME280;66140;50.280;18.660;2023-03-11T14:33:19;97729.53;;;0.46;89.01
77165;BME280;66140;50.280;18.660;2023-03-11T14:36:11;97721.06;;;0.41;90.50
77165;BME280;66140;50.280;18.660;2023-03-11T14:38:41;97735.88;;;0.40;88.09
77165;BME280;66140;50.280;18.660;2023-03-11T14:41:12;97737.84;;;0.35;89.59
77165;BME280;66140;50.280;18.660;2023-03-11T14:43:42;97754.84;;;0.25;88.59
77165;BME280;66140;50.280;18.660;2023-03-11T14:46:16;97757.78;;;0.18;89.60
77165;BME280;66140;50.280;18.660;2023-03-11T14:48:43;97749.16;;;0.16;90.35
77165;BME280;66140;50.280;18.660;2023-03-11T14:51:17;97757.84;;;0.16;90.78
77165;BME280;66140;50.280;18.660;2023-03-11T14:53:49;97757.94;;;0.13;91.52
77165;BME280;66140;50.280;18.660;2023-03-11T14:56:20;97754.44;;;0.14;91.53
77165;BME280;66140;50.280;18.660;2023-03-11T14:59:39;97780.41;;;0.17;91.96
77165;BME280;66140;50.280;18.660;2023-03-11T15:01:48;97775.94;;;0.19;91.07
77165;BME280;66140;50.280;18.660;2023-03-11T15:04:41;97786.47;;;0.18;92.15
77165;BME280;66140;50.280;18.660;2023-03-11T15:07:08;97796.16;;;0.14;91.59
77165;BME280;66140;50.280;18.660;2023-03-11T15:09:38;97801.31;;;0.16;91.98
77165;BME280;66140;50.280;18.660;2023-03-11T15:12:06;97803.06;;;0.15;91.82
77165;BME280;66140;50.280;18.660;2023-03-11T15:14:36;97808.28;;;0.15;91.56
77165;BME280;66140;50.280;18.660;2023-03-11T15:17:23;97804.13;;;0.11;92.15
77165;BME280;66140;50.280;18.660;2023-03-11T15:19:53;97812.06;;;0.08;92.73
77165;BME280;66140;50.280;18.660;2023-03-11T15:22:34;97815.31;;;0.13;93.25
77165;BME280;66140;50.280;18.660;2023-03-11T15:25:02;97811.81;;;0.14;94.02
77165;BME280;66140;50.280;18.660;2023-03-11T15:27:37;97824.25;;;0.08;92.91
77165;BME280;66140;50.280;18.660;2023-03-11T15:30:21;97835.47;;;0.10;92.91
77165;BME280;66140;50.280;18.660;2023-03-11T15:32:47;97837.28;;;0.08;92.71
77165;BME280;66140;50.280;18.660;2023-03-11T15:37:42;97839.13;;;0.06;92.91
77165;BME280;66140;50.280;18.660;2023-03-11T15:42:44;97854.78;;;0.06;93.80
77165;BME280;66140;50.280;18.660;2023-03-11T15:45:16;97859.16;;;0.05;93.07
77165;BME280;66140;50.280;18.660;2023-03-11T15:47:43;97866.31;;;0.00;92.60
77165;BME280;66140;50.280;18.660;2023-03-11T15:52:43;97877.81;;;-0.06;95.47
77165;BME280;66140;50.280;18.660;2023-03-11T15:55:10;97879.06;;;-0.14;96.00
77165;BME280;66140;50.280;18.660;2023-03-11T15:57:36;97884.13;;;-0.11;95.96
77165;BME280;66140;50.280;18.660;2023-03-11T16:00:04;97888.50;;;-0.12;95.71
77165;BME280;66140;50.280;18.660;2023-03-11T16:02:31;97878.41;;;0.01;95.96
77165;BME280;66140;50.280;18.660;2023-03-11T16:04:57;97897.47;;;0.03;93.78
77165;BME280;66140;50.280;18.660;2023-03-11T16:07:23;97887.84;;;0.05;92.69
77165;BME280;66140;50.280;18.660;2023-03-11T16:09:49;97895.50;;;0.08;91.12
77165;BME280;66140;50.280;18.660;2023-03-11T16:12:16;97908.50;;;0.10;91.76
77165;BME280;66140;50.280;18.660;2023-03-11T16:14:43;97912.00;;;0.09;87.65
77165;BME280;66140;50.280;18.660;2023-03-11T16:17:08;97913.13;;;0.03;88.92
77165;BME280;66140;50.280;18.660;2023-03-11T16:19:34;97927.19;;;-0.01;86.93
77165;BME280;66140;50.280;18.660;2023-03-11T16:22:00;97935.00;;;-0.01;85.71
77165;BME280;66140;50.280;18.660;2023-03-11T16:24:27;97923.25;;;-0.11;84.95
77165;BME280;66140;50.280;18.660;2023-03-11T16:26:52;97944.91;;;-0.09;83.66
77165;BME280;66140;50.280;18.660;2023-03-11T16:29:19;97954.41;;;-0.08;83.85
77165;BME280;66140;50.280;18.660;2023-03-11T16:31:44;97958.97;;;-0.13;84.18
77165;BME280;66140;50.280;18.660;2023-03-11T16:34:09;97952.97;;;-0.15;84.32
77165;BME280;66140;50.280;18.660;2023-03-11T16:36:35;97977.28;;;-0.15;85.58
77165;BME280;66140;50.280;18.660;2023-03-11T16:39:00;97974.72;;;-0.16;83.82
77165;BME280;66140;50.280;18.660;2023-03-11T16:41:26;97983.56;;;-0.20;83.79
77165;BME280;66140;50.280;18.660;2023-03-11T16:43:52;97982.72;;;-0.21;83.66
77165;BME280;66140;50.280;18.660;2023-03-11T16:46:17;97988.88;;;-0.23;82.47
77165;BME280;66140;50.280;18.660;2023-03-11T16:48:43;97995.84;;;-0.24;82.81
77165;BME280;66140;50.280;18.660;2023-03-11T16:51:08;97999.38;;;-0.25;83.80
77165;BME280;66140;50.280;18.660;2023-03-11T16:53:34;98009.75;;;-0.23;83.46
77165;BME280;66140;50.280;18.660;2023-03-11T16:55:59;98017.69;;;-0.26;83.38
77165;BME280;66140;50.280;18.660;2023-03-11T16:58:25;98001.97;;;-0.25;84.45
77165;BME280;66140;50.280;18.660;2023-03-11T17:00:50;98030.03;;;-0.31;83.47
77165;BME280;66140;50.280;18.660;2023-03-11T17:03:17;98028.34;;;-0.32;85.48
77165;BME280;66140;50.280;18.660;2023-03-11T17:05:43;98022.19;;;-0.31;83.49
77165;BME280;66140;50.280;18.660;2023-03-11T17:08:09;98035.41;;;-0.36;83.69
77165;BME280;66140;50.280;18.660;2023-03-11T17:10:36;98045.56;;;-0.28;82.65
77165;BME280;66140;50.280;18.660;2023-03-11T17:13:03;98060.41;;;-0.30;81.58
77165;BME280;66140;50.280;18.660;2023-03-11T17:15:29;98053.59;;;-0.34;82.49
77165;BME280;66140;50.280;18.660;2023-03-11T17:17:54;98076.84;;;-0.28;81.62
77165;BME280;66140;50.280;18.660;2023-03-11T17:20:20;98068.25;;;-0.32;83.73
77165;BME280;66140;50.280;18.660;2023-03-11T17:22:45;98077.06;;;-0.34;81.53
77165;BME280;66140;50.280;18.660;2023-03-11T17:25:10;98078.09;;;-0.38;80.45
77165;BME280;66140;50.280;18.660;2023-03-11T17:27:36;98096.34;;;-0.38;80.48
77165;BME280;66140;50.280;18.660;2023-03-11T17:30:03;98102.38;;;-0.38;82.24
77165;BME280;66140;50.280;18.660;2023-03-11T17:32:29;98104.25;;;-0.42;81.79
77165;BME280;66140;50.280;18.660;2023-03-11T17:34:55;98114.50;;;-0.37;82.23
77165;BME280;66140;50.280;18.660;2023-03-11T17:37:21;98115.56;;;-0.43;81.90
77165;BME280;66140;50.280;18.660;2023-03-11T17:39:47;98119.66;;;-0.35;81.01
77165;BME280;66140;50.280;18.660;2023-03-11T17:42:12;98111.25;;;-0.44;82.59
77165;BME280;66140;50.280;18.660;2023-03-11T17:44:38;98112.09;;;-0.43;82.98
77165;BME280;66140;50.280;18.660;2023-03-11T17:47:03;98126.88;;;-0.44;82.75
77165;BME280;66140;50.280;18.660;2023-03-11T17:49:28;98126.88;;;-0.44;83.93
77165;BME280;66140;50.280;18.660;2023-03-11T17:51:54;98144.44;;;-0.49;82.56
77165;BME280;66140;50.280;18.660;2023-03-11T17:54:19;98142.53;;;-0.44;85.41
77165;BME280;66140;50.280;18.660;2023-03-11T17:56:45;98145.22;;;-0.45;83.79
77165;BME280;66140;50.280;18.660;2023-03-11T17:59:10;98147.94;;;-0.50;83.72
77165;BME280;66140;50.280;18.660;2023-03-11T18:01:38;98164.22;;;-0.43;83.93
77165;BME280;66140;50.280;18.660;2023-03-11T18:04:03;98152.25;;;-0.49;83.65
77165;BME280;66140;50.280;18.660;2023-03-11T18:06:29;98172.28;;;-0.51;82.67
77165;BME280;66140;50.280;18.660;2023-03-11T18:08:54;98177.50;;;-0.51;83.07
77165;BME280;66140;50.280;18.660;2023-03-11T18:11:22;98187.88;;;-0.49;84.40
77165;BME280;66140;50.280;18.660;2023-03-11T18:13:49;98198.25;;;-0.48;83.18
77165;BME280;66140;50.280;18.660;2023-03-11T18:16:17;98193.91;;;-0.47;82.30
77165;BME280;66140;50.280;18.660;2023-03-11T18:18:43;98195.66;;;-0.48;84.63
77165;BME280;66140;50.280;18.660;2023-03-11T18:21:17;98195.00;;;-0.54;84.18
77165;BME280;66140;50.280;18.660;2023-03-11T18:23:44;98208.63;;;-0.46;84.73
77165;BME280;66140;50.280;18.660;2023-03-11T18:26:11;98215.56;;;-0.45;83.34
77165;BME280;66140;50.280;18.660;2023-03-11T18:28:37;98211.34;;;-0.49;84.41
77165;BME280;66140;50.280;18.660;2023-03-11T18:31:07;98218.97;;;-0.45;83.92
77165;BME280;66140;50.280;18.660;2023-03-11T18:33:32;98221.50;;;-0.42;83.57
77165;BME280;66140;50.280;18.660;2023-03-11T18:35:58;98223.22;;;-0.41;82.45
77165;BME280;66140;50.280;18.660;2023-03-11T18:38:23;98214.78;;;-0.49;83.44
77165;BME280;66140;50.280;18.660;2023-03-11T18:40:55;98223.50;;;-0.50;82.43
77165;BME280;66140;50.280;18.660;2023-03-11T18:43:21;98224.41;;;-0.51;82.90
77165;BME280;66140;50.280;18.660;2023-03-11T18:45:47;98227.94;;;-0.52;82.43
77165;BME280;66140;50.280;18.660;2023-03-11T18:48:12;98222.81;;;-0.55;83.00
77165;BME280;66140;50.280;18.660;2023-03-11T18:50:38;98229.72;;;-0.54;83.76
77165;BME280;66140;50.280;18.660;2023-03-11T18:53:03;98232.34;;;-0.54;83.11
77165;BME280;66140;50.280;18.660;2023-03-11T18:55:29;98235.78;;;-0.53;83.11
77165;BME280;66140;50.280;18.660;2023-03-11T18:57:54;98245.03;;;-0.45;82.50
77165;BME280;66140;50.280;18.660;2023-03-11T19:00:20;98253.56;;;-0.39;80.31
77165;BME280;66140;50.280;18.660;2023-03-11T19:02:53;98244.88;;;-0.38;81.72
77165;BME280;66140;50.280;18.660;2023-03-11T19:05:20;98256.06;;;-0.36;81.72
77165;BME280;66140;50.280;18.660;2023-03-11T19:07:46;98265.63;;;-0.37;82.69
77165;BME280;66140;50.280;18.660;2023-03-11T19:10:11;98262.13;;;-0.36;81.72
77165;BME280;66140;50.280;18.660;2023-03-11T19:12:39;98270.81;;;-0.35;81.64
77165;BME280;66140;50.280;18.660;2023-03-11T19:15:04;98258.66;;;-0.36;81.49
77165;BME280;66140;50.280;18.660;2023-03-11T19:17:30;98269.75;;;-0.30;81.73
77165;BME280;66140;50.280;18.660;2023-03-11T19:19:58;98254.09;;;-0.30;82.35
77165;BME280;66140;50.280;18.660;2023-03-11T19:22:24;98278.75;;;-0.38;81.96
77165;BME280;66140;50.280;18.660;2023-03-11T19:24:52;98293.44;;;-0.37;78.90
77165;BME280;66140;50.280;18.660;2023-03-11T19:27:17;98292.78;;;-0.44;78.78
77165;BME280;66140;50.280;18.660;2023-03-11T19:29:43;98282.44;;;-0.46;80.92
77165;BME280;66140;50.280;18.660;2023-03-11T19:32:08;98302.47;;;-0.48;82.49
77165;BME280;66140;50.280;18.660;2023-03-11T19:34:34;98300.78;;;-0.49;82.39
77165;BME280;66140;50.280;18.660;2023-03-11T19:36:59;98297.28;;;-0.48;83.26
77165;BME280;66140;50.280;18.660;2023-03-11T19:39:24;98298.13;;;-0.47;82.63
77165;BME280;66140;50.280;18.660;2023-03-11T19:41:50;98308.38;;;-0.43;84.20
77165;BME280;66140;50.280;18.660;2023-03-11T19:44:15;98301.38;;;-0.41;83.49
77165;BME280;66140;50.280;18.660;2023-03-11T19:46:41;98300.56;;;-0.43;84.08
77165;BME280;66140;50.280;18.660;2023-03-11T19:49:06;98300.56;;;-0.43;84.56
77165;BME280;66140;50.280;18.660;2023-03-11T19:51:32;98301.63;;;-0.48;84.15